createdAt,value
2022-11-08T00:18:29.765Z,19.3
2022-11-08T00:48:30.095Z,19.3
2022-11-08T01:18:29.779Z,19.3
2022-11-08T01:48:30.068Z,19.2
2022-11-08T02:18:29.797Z,19.2
2022-11-08T02:48:30.115Z,19.1
2022-11-08T03:18:30.078Z,19.1
2022-11-08T03:48:29.816Z,19.1
2022-11-08T04:18:30.081Z,19.3
2022-11-08T04:48:30.123Z,19.4
2022-11-08T05:18:30.085Z,19.5
2022-11-08T05:48:30.226Z,19.5
2022-11-08T06:18:29.917Z,19.5
2022-11-08T06:48:30.283Z,19.5
2022-11-08T07:18:30.059Z,19.6
2022-11-08T07:48:30.056Z,19.8
2022-11-08T08:18:30.046Z,19.8
2022-11-08T08:48:30.069Z,20.0
2022-11-08T09:18:30.073Z,20.0
2022-11-08T09:48:30.064Z,20.0
2022-11-08T10:18:29.779Z,20.0
2022-11-08T10:48:30.084Z,20.0
2022-11-08T11:18:30.140Z,20.0
2022-11-08T11:48:30.061Z,20.1
2022-11-08T12:18:30.067Z,20.1
2022-11-08T12:48:30.044Z,20.0
2022-11-08T13:18:30.140Z,20.4
2022-11-08T13:48:30.058Z,20.3
2022-11-08T14:18:30.074Z,20.4
2022-11-08T14:48:30.075Z,20.4
2022-11-08T15:18:30.071Z,20.5
2022-11-08T15:48:30.121Z,20.5
2022-11-08T16:18:30.085Z,20.5
2022-11-08T16:48:30.067Z,20.5
2022-11-08T17:18:30.064Z,20.5
2022-11-08T17:48:30.206Z,20.4
2022-11-08T18:18:30.173Z,20.3
2022-11-08T18:48:30.026Z,20.3
2022-11-08T19:18:30.036Z,20.3
2022-11-08T19:48:30.218Z,20.2
2022-11-08T20:18:30.027Z,20.2
2022-11-08T20:48:30.020Z,20.2
2022-11-08T21:18:30.014Z,20.2
2022-11-08T21:48:30.016Z,20.1
2022-11-08T22:18:30.059Z,20.0
2022-11-08T22:48:30.048Z,20.0
2022-11-08T23:18:30.082Z,19.9
2022-11-08T23:48:30.007Z,19.9
